sensor_id;sensor_type;location;lat;lon;timestamp;P1;durP1;ratioP1;P2;durP2;ratioP2
69280;SDS011;56392;51.082;17.080;2023-05-18T00:00:00;14.98;;;4.18;;
69280;SDS011;56392;51.082;17.080;2023-05-18T00:05:43;14.90;;;4.13;;
69280;SDS011;56392;51.082;17.080;2023-05-18T00:11:07;13.10;;;4.32;;
69280;SDS011;56392;51.082;17.080;2023-05-18T00:16:30;15.75;;;4.32;;
69280;SDS011;56392;51.082;17.080;2023-05-18T00:21:53;13.13;;;4.03;;
69280;SDS011;56392;51.082;17.080;2023-05-18T00:27:18;14.15;;;4.75;;
69280;SDS011;56392;51.082;17.080;2023-05-18T00:32:42;15.73;;;4.68;;
69280;SDS011;56392;51.082;17.080;2023-05-18T00:38:05;14.33;;;4.37;;
69280;SDS011;56392;51.082;17.080;2023-05-18T00:43:30;13.77;;;4.37;;
69280;SDS011;56392;51.082;17.080;2023-05-18T00:48:53;16.42;;;4.13;;
69280;SDS011;56392;51.082;17.080;2023-05-18T00:54:17;16.65;;;4.10;;
69280;SDS011;56392;51.082;17.080;2023-05-18T00:59:42;13.83;;;3.80;;
69280;SDS011;56392;51.082;17.080;2023-05-18T01:05:06;12.88;;;3.92;;
69280;SDS011;56392;51.082;17.080;2023-05-18T01:15:56;16.10;;;4.20;;
69280;SDS011;56392;51.082;17.080;2023-05-18T01:21:28;13.90;;;3.72;;
69280;SDS011;56392;51.082;17.080;2023-05-18T01:27:05;12.07;;;3.65;;
69280;SDS011;56392;51.082;17.080;2023-05-18T01:32:29;16.47;;;4.03;;
69280;SDS011;56392;51.082;17.080;2023-05-18T01:37:52;15.20;;;4.23;;
69280;SDS011;56392;51.082;17.080;2023-05-18T01:43:17;14.98;;;3.90;;
69280;SDS011;56392;51.082;17.080;2023-05-18T01:48:46;18.90;;;3.95;;
69280;SDS011;56392;51.082;17.080;2023-05-18T01:54:16;13.43;;;3.90;;
69280;SDS011;56392;51.082;17.080;2023-05-18T01:59:43;21.48;;;4.78;;
69280;SDS011;56392;51.082;17.080;2023-05-18T02:05:07;12.50;;;3.30;;
69280;SDS011;56392;51.082;17.080;2023-05-18T02:10:32;14.80;;;3.73;;
69280;SDS011;56392;51.082;17.080;2023-05-18T02:15:57;12.07;;;3.30;;
69280;SDS011;56392;51.082;17.080;2023-05-18T02:21:20;11.40;;;3.40;;
69280;SDS011;56392;51.082;17.080;2023-05-18T02:26:43;12.13;;;3.63;;
69280;SDS011;56392;51.082;17.080;2023-05-18T02:32:07;14.10;;;3.07;;
69280;SDS011;56392;51.082;17.080;2023-05-18T02:37:30;10.98;;;3.00;;
69280;SDS011;56392;51.082;17.080;2023-05-18T02:42:54;10.90;;;2.80;;
69280;SDS011;56392;51.082;17.080;2023-05-18T02:48:19;12.10;;;2.63;;
69280;SDS011;56392;51.082;17.080;2023-05-18T02:53:42;13.52;;;2.97;;
69280;SDS011;56392;51.082;17.080;2023-05-18T02:59:05;12.93;;;2.92;;
69280;SDS011;56392;51.082;17.080;2023-05-18T03:04:30;11.67;;;2.90;;
69280;SDS011;56392;51.082;17.080;2023-05-18T03:09:53;14.48;;;3.40;;
69280;SDS011;56392;51.082;17.080;2023-05-18T03:15:16;11.65;;;2.92;;
69280;SDS011;56392;51.082;17.080;2023-05-18T03:20:41;12.87;;;2.87;;
69280;SDS011;56392;51.082;17.080;2023-05-18T03:26:04;13.20;;;2.87;;
69280;SDS011;56392;51.082;17.080;2023-05-18T03:31:31;11.30;;;2.65;;
69280;SDS011;56392;51.082;17.080;2023-05-18T03:36:55;8.93;;;2.60;;
69280;SDS011;56392;51.082;17.080;2023-05-18T03:42:18;14.30;;;2.63;;
69280;SDS011;56392;51.082;17.080;2023-05-18T03:47:41;10.65;;;3.30;;
69280;SDS011;56392;51.082;17.080;2023-05-18T03:53:06;11.43;;;2.80;;
69280;SDS011;56392;51.082;17.080;2023-05-18T03:58:29;14.03;;;2.60;;
69280;SDS011;56392;51.082;17.080;2023-05-18T04:03:52;11.88;;;2.40;;
69280;SDS011;56392;51.082;17.080;2023-05-18T04:09:18;9.38;;;2.30;;
69280;SDS011;56392;51.082;17.080;2023-05-18T04:14:44;9.33;;;2.57;;
69280;SDS011;56392;51.082;17.080;2023-05-18T04:20:10;10.23;;;2.30;;
69280;SDS011;56392;51.082;17.080;2023-05-18T04:25:36;9.85;;;2.10;;
69280;SDS011;56392;51.082;17.080;2023-05-18T04:30:59;11.95;;;2.53;;
69280;SDS011;56392;51.082;17.080;2023-05-18T04:36:22;8.90;;;2.27;;
69280;SDS011;56392;51.082;17.080;2023-05-18T04:41:47;12.60;;;2.65;;
69280;SDS011;56392;51.082;17.080;2023-05-18T04:47:10;12.70;;;2.25;;
69280;SDS011;56392;51.082;17.080;2023-05-18T04:52:33;15.37;;;2.40;;
69280;SDS011;56392;51.082;17.080;2023-05-18T04:57:58;13.05;;;2.30;;
69280;SDS011;56392;51.082;17.080;2023-05-18T05:03:23;12.35;;;2.40;;
69280;SDS011;56392;51.082;17.080;2023-05-18T05:08:46;12.90;;;2.53;;
69280;SDS011;56392;51.082;17.080;2023-05-18T05:14:10;13.37;;;2.13;;
69280;SDS011;56392;51.082;17.080;2023-05-18T05:19:33;10.02;;;2.08;;
69280;SDS011;56392;51.082;17.080;2023-05-18T05:24:56;11.10;;;2.50;;
69280;SDS011;56392;51.082;17.080;2023-05-18T05:30:21;9.83;;;1.83;;
69280;SDS011;56392;51.082;17.080;2023-05-18T05:35:44;12.05;;;2.20;;
69280;SDS011;56392;51.082;17.080;2023-05-18T05:41:07;10.25;;;2.28;;
69280;SDS011;56392;51.082;17.080;2023-05-18T05:46:31;8.77;;;2.03;;
69280;SDS011;56392;51.082;17.080;2023-05-18T05:51:54;12.45;;;2.20;;
69280;SDS011;56392;51.082;17.080;2023-05-18T05:57:17;12.98;;;2.25;;
69280;SDS011;56392;51.082;17.080;2023-05-18T06:02:41;10.17;;;2.30;;
69280;SDS011;56392;51.082;17.080;2023-05-18T06:08:04;9.93;;;1.70;;
69280;SDS011;56392;51.082;17.080;2023-05-18T06:13:27;9.85;;;1.67;;
69280;SDS011;56392;51.082;17.080;2023-05-18T06:18:52;7.50;;;1.50;;
69280;SDS011;56392;51.082;17.080;2023-05-18T06:24:15;10.50;;;1.50;;
69280;SDS011;56392;51.082;17.080;2023-05-18T06:29:38;8.73;;;1.60;;
69280;SDS011;56392;51.082;17.080;2023-05-18T06:35:03;7.78;;;1.67;;
69280;SDS011;56392;51.082;17.080;2023-05-18T06:40:28;10.33;;;1.63;;
69280;SDS011;56392;51.082;17.080;2023-05-18T06:45:51;8.68;;;1.33;;
69280;SDS011;56392;51.082;17.080;2023-05-18T06:51:15;7.90;;;1.58;;
69280;SDS011;56392;51.082;17.080;2023-05-18T06:56:38;11.47;;;1.50;;
69280;SDS011;56392;51.082;17.080;2023-05-18T07:02:01;9.63;;;1.30;;
69280;SDS011;56392;51.082;17.080;2023-05-18T07:07:26;8.30;;;1.38;;
69280;SDS011;56392;51.082;17.080;2023-05-18T07:12:49;6.63;;;1.13;;
69280;SDS011;56392;51.082;17.080;2023-05-18T07:18:12;11.07;;;2.00;;
69280;SDS011;56392;51.082;17.080;2023-05-18T07:23:36;7.93;;;1.30;;
69280;SDS011;56392;51.082;17.080;2023-05-18T07:28:59;8.20;;;1.42;;
69280;SDS011;56392;51.082;17.080;2023-05-18T07:34:22;9.17;;;1.27;;
69280;SDS011;56392;51.082;17.080;2023-05-18T07:39:48;9.13;;;1.20;;
69280;SDS011;56392;51.082;17.080;2023-05-18T07:45:11;6.78;;;1.23;;
69280;SDS011;56392;51.082;17.080;2023-05-18T07:50:34;7.23;;;1.37;;
69280;SDS011;56392;51.082;17.080;2023-05-18T07:55:59;9.93;;;1.10;;
69280;SDS011;56392;51.082;17.080;2023-05-18T08:01:22;9.10;;;1.20;;
69280;SDS011;56392;51.082;17.080;2023-05-18T08:06:47;8.00;;;1.35;;
69280;SDS011;56392;51.082;17.080;2023-05-18T08:12:12;7.83;;;1.20;;
69280;SDS011;56392;51.082;17.080;2023-05-18T08:17:35;8.95;;;1.55;;
69280;SDS011;56392;51.082;17.080;2023-05-18T08:22:58;7.95;;;1.13;;
69280;SDS011;56392;51.082;17.080;2023-05-18T08:28:23;8.00;;;1.20;;
69280;SDS011;56392;51.082;17.080;2023-05-18T08:33:46;6.28;;;1.23;;
69280;SDS011;56392;51.082;17.080;2023-05-18T08:39:10;8.88;;;1.50;;
69280;SDS011;56392;51.082;17.080;2023-05-18T08:44:36;7.23;;;1.33;;
69280;SDS011;56392;51.082;17.080;2023-05-18T08:50:02;8.73;;;1.37;;
69280;SDS011;56392;51.082;17.080;2023-05-18T08:55:27;7.45;;;1.30;;
69280;SDS011;56392;51.082;17.080;2023-05-18T09:00:52;7.95;;;1.40;;
69280;SDS011;56392;51.082;17.080;2023-05-18T09:06:15;8.97;;;1.20;;
69280;SDS011;56392;51.082;17.080;2023-05-18T09:11:40;9.20;;;1.75;;
69280;SDS011;56392;51.082;17.080;2023-05-18T09:17:05;7.68;;;1.50;;
69280;SDS011;56392;51.082;17.080;2023-05-18T09:22:28;7.63;;;1.30;;
69280;SDS011;56392;51.082;17.080;2023-05-18T09:27:51;10.02;;;2.05;;
69280;SDS011;56392;51.082;17.080;2023-05-18T09:33:17;8.05;;;1.63;;
69280;SDS011;56392;51.082;17.080;2023-05-18T09:38:42;10.80;;;1.70;;
69280;SDS011;56392;51.082;17.080;2023-05-18T09:44:07;8.33;;;1.50;;
69280;SDS011;56392;51.082;17.080;2023-05-18T09:49:31;6.72;;;1.30;;
69280;SDS011;56392;51.082;17.080;2023-05-18T09:54:57;10.18;;;1.42;;
69280;SDS011;56392;51.082;17.080;2023-05-18T10:00:22;6.50;;;1.20;;
69280;SDS011;56392;51.082;17.080;2023-05-18T10:05:49;9.07;;;1.42;;
69280;SDS011;56392;51.082;17.080;2023-05-18T10:11:14;8.70;;;1.52;;
69280;SDS011;56392;51.082;17.080;2023-05-18T10:16:39;6.20;;;1.10;;
69280;SDS011;56392;51.082;17.080;2023-05-18T10:22:04;6.93;;;1.10;;
69280;SDS011;56392;51.082;17.080;2023-05-18T10:27:28;7.72;;;1.02;;
69280;SDS011;56392;51.082;17.080;2023-05-18T10:32:51;6.30;;;1.03;;
69280;SDS011;56392;51.082;17.080;2023-05-18T10:38:20;6.80;;;1.27;;
69280;SDS011;56392;51.082;17.080;2023-05-18T10:43:44;9.35;;;1.10;;
69280;SDS011;56392;51.082;17.080;2023-05-18T10:49:08;5.15;;;0.90;;
69280;SDS011;56392;51.082;17.080;2023-05-18T10:54:36;6.67;;;1.20;;
69280;SDS011;56392;51.082;17.080;2023-05-18T11:00:03;5.63;;;0.80;;
69280;SDS011;56392;51.082;17.080;2023-05-18T11:05:29;6.75;;;1.25;;
69280;SDS011;56392;51.082;17.080;2023-05-18T11:11:03;5.17;;;1.00;;
69280;SDS011;56392;51.082;17.080;2023-05-18T11:16:33;7.13;;;1.00;;
69280;SDS011;56392;51.082;17.080;2023-05-18T11:21:57;6.88;;;1.00;;
69280;SDS011;56392;51.082;17.080;2023-05-18T11:27:34;8.57;;;1.10;;
69280;SDS011;56392;51.082;17.080;2023-05-18T11:33:06;6.60;;;0.80;;
69280;SDS011;56392;51.082;17.080;2023-05-18T11:38:46;8.52;;;1.00;;
69280;SDS011;56392;51.082;17.080;2023-05-18T11:44:15;4.95;;;0.90;;
69280;SDS011;56392;51.082;17.080;2023-05-18T11:49:41;4.57;;;0.93;;
69280;SDS011;56392;51.082;17.080;2023-05-18T11:55:05;8.00;;;1.10;;
69280;SDS011;56392;51.082;17.080;2023-05-18T12:00:31;4.93;;;0.95;;
69280;SDS011;56392;51.082;17.080;2023-05-18T12:05:56;6.00;;;0.90;;
69280;SDS011;56392;51.082;17.080;2023-05-18T12:11:19;5.50;;;1.10;;
69280;SDS011;56392;51.082;17.080;2023-05-18T12:16:45;4.82;;;1.10;;
69280;SDS011;56392;51.082;17.080;2023-05-18T12:22:10;6.73;;;1.10;;
69280;SDS011;56392;51.082;17.080;2023-05-18T12:27:36;5.60;;;0.93;;
69280;SDS011;56392;51.082;17.080;2023-05-18T12:33:01;6.78;;;1.20;;
69280;SDS011;56392;51.082;17.080;2023-05-18T12:38:24;5.35;;;1.13;;
69280;SDS011;56392;51.082;17.080;2023-05-18T12:43:48;4.93;;;0.80;;
69280;SDS011;56392;51.082;17.080;2023-05-18T12:49:14;3.08;;;0.73;;
69280;SDS011;56392;51.082;17.080;2023-05-18T12:54:50;5.13;;;1.00;;
69280;SDS011;56392;51.082;17.080;2023-05-18T13:00:20;5.87;;;0.97;;
69280;SDS011;56392;51.082;17.080;2023-05-18T13:06:01;5.45;;;0.95;;
69280;SDS011;56392;51.082;17.080;2023-05-18T13:11:25;3.67;;;0.90;;
69280;SDS011;56392;51.082;17.080;2023-05-18T13:16:49;3.53;;;0.70;;
69280;SDS011;56392;51.082;17.080;2023-05-18T13:22:15;5.17;;;0.80;;
69280;SDS011;56392;51.082;17.080;2023-05-18T13:27:38;4.90;;;0.90;;
69280;SDS011;56392;51.082;17.080;2023-05-18T13:33:01;4.15;;;1.00;;
69280;SDS011;56392;51.082;17.080;2023-05-18T13:38:26;4.70;;;1.03;;
69280;SDS011;56392;51.082;17.080;2023-05-18T13:43:49;5.38;;;1.10;;
69280;SDS011;56392;51.082;17.080;2023-05-18T13:49:12;7.63;;;1.00;;
69280;SDS011;56392;51.082;17.080;2023-05-18T13:54:36;4.63;;;1.00;;
69280;SDS011;56392;51.082;17.080;2023-05-18T14:00:00;4.75;;;1.27;;
69280;SDS011;56392;51.082;17.080;2023-05-18T14:05:27;5.97;;;1.30;;
69280;SDS011;56392;51.082;17.080;2023-05-18T14:10:52;6.40;;;1.00;;
69280;SDS011;56392;51.082;17.080;2023-05-18T14:16:15;6.47;;;1.13;;
69280;SDS011;56392;51.082;17.080;2023-05-18T14:21:38;6.18;;;1.20;;
69280;SDS011;56392;51.082;17.080;2023-05-18T14:27:02;5.07;;;0.90;;
69280;SDS011;56392;51.082;17.080;2023-05-18T14:32:26;5.33;;;1.13;;
69280;SDS011;56392;51.082;17.080;2023-05-18T14:37:49;5.25;;;0.90;;
69280;SDS011;56392;51.082;17.080;2023-05-18T14:43:13;5.75;;;1.27;;
69280;SDS011;56392;51.082;17.080;2023-05-18T14:48:36;4.40;;;1.00;;
69280;SDS011;56392;51.082;17.080;2023-05-18T14:53:59;3.92;;;0.95;;
69280;SDS011;56392;51.082;17.080;2023-05-18T14:59:23;3.88;;;1.00;;
69280;SDS011;56392;51.082;17.080;2023-05-18T15:04:46;4.83;;;1.20;;
69280;SDS011;56392;51.082;17.080;2023-05-18T15:10:09;7.50;;;1.40;;
69280;SDS011;56392;51.082;17.080;2023-05-18T15:15:34;6.35;;;1.20;;
69280;SDS011;56392;51.082;17.080;2023-05-18T15:20:57;5.65;;;1.20;;
69280;SDS011;56392;51.082;17.080;2023-05-18T15:26:20;6.50;;;1.13;;
69280;SDS011;56392;51.082;17.080;2023-05-18T15:31:45;4.95;;;1.20;;
69280;SDS011;56392;51.082;17.080;2023-05-18T15:37:11;5.30;;;1.10;;
69280;SDS011;56392;51.082;17.080;2023-05-18T15:42:34;5.60;;;1.33;;
69280;SDS011;56392;51.082;17.080;2023-05-18T15:47:59;6.47;;;1.25;;
69280;SDS011;56392;51.082;17.080;2023-05-18T15:53:22;4.45;;;1.00;;
69280;SDS011;56392;51.082;17.080;2023-05-18T15:58:45;4.20;;;1.10;;
69280;SDS011;56392;51.082;17.080;2023-05-18T16:04:10;5.00;;;1.07;;
69280;SDS011;56392;51.082;17.080;2023-05-18T16:09:33;6.25;;;1.25;;
69280;SDS011;56392;51.082;17.080;2023-05-18T16:14:56;4.90;;;1.05;;
69280;SDS011;56392;51.082;17.080;2023-05-18T16:20:21;4.20;;;1.20;;
69280;SDS011;56392;51.082;17.080;2023-05-18T16:25:44;5.00;;;1.10;;
69280;SDS011;56392;51.082;17.080;2023-05-18T16:31:07;4.85;;;1.33;;
69280;SDS011;56392;51.082;17.080;2023-05-18T16:36:34;8.37;;;1.10;;
69280;SDS011;56392;51.082;17.080;2023-05-18T16:41:58;4.40;;;1.10;;
69280;SDS011;56392;51.082;17.080;2023-05-18T16:47:22;8.23;;;1.45;;
69280;SDS011;56392;51.082;17.080;2023-05-18T16:52:52;6.33;;;1.43;;
69280;SDS011;56392;51.082;17.080;2023-05-18T16:58:15;5.53;;;1.10;;
69280;SDS011;56392;51.082;17.080;2023-05-18T17:03:39;5.47;;;1.15;;
69280;SDS011;56392;51.082;17.080;2023-05-18T17:09:04;4.00;;;1.05;;
69280;SDS011;56392;51.082;17.080;2023-05-18T17:14:27;5.80;;;1.37;;
69280;SDS011;56392;51.082;17.080;2023-05-18T17:19:51;5.40;;;1.17;;
69280;SDS011;56392;51.082;17.080;2023-05-18T17:25:15;5.35;;;0.98;;
69280;SDS011;56392;51.082;17.080;2023-05-18T17:30:38;6.00;;;1.30;;
69280;SDS011;56392;51.082;17.080;2023-05-18T17:36:02;6.05;;;1.33;;
69280;SDS011;56392;51.082;17.080;2023-05-18T17:41:27;5.90;;;1.40;;
69280;SDS011;56392;51.082;17.080;2023-05-18T17:46:50;4.90;;;1.20;;
69280;SDS011;56392;51.082;17.080;2023-05-18T17:52:13;4.53;;;1.13;;
69280;SDS011;56392;51.082;17.080;2023-05-18T17:57:38;7.63;;;1.33;;
69280;SDS011;56392;51.082;17.080;2023-05-18T18:03:06;7.00;;;1.40;;
69280;SDS011;56392;51.082;17.080;2023-05-18T18:08:30;8.03;;;1.63;;
69280;SDS011;56392;51.082;17.080;2023-05-18T18:13:55;6.40;;;1.35;;
69280;SDS011;56392;51.082;17.080;2023-05-18T18:19:19;5.05;;;1.33;;
69280;SDS011;56392;51.082;17.080;2023-05-18T18:24:42;11.40;;;1.60;;
69280;SDS011;56392;51.082;17.080;2023-05-18T18:30:07;5.53;;;1.30;;
69280;SDS011;56392;51.082;17.080;2023-05-18T18:35:31;5.18;;;1.45;;
69280;SDS011;56392;51.082;17.080;2023-05-18T18:40:55;4.63;;;1.40;;
69280;SDS011;56392;51.082;17.080;2023-05-18T18:46:23;6.50;;;1.50;;
69280;SDS011;56392;51.082;17.080;2023-05-18T18:51:46;6.00;;;1.35;;
69280;SDS011;56392;51.082;17.080;2023-05-18T18:57:11;6.30;;;1.40;;
69280;SDS011;56392;51.082;17.080;2023-05-18T19:02:36;5.20;;;1.40;;
69280;SDS011;56392;51.082;17.080;2023-05-18T19:07:59;5.15;;;1.55;;
69280;SDS011;56392;51.082;17.080;2023-05-18T19:13:22;5.45;;;1.70;;
69280;SDS011;56392;51.082;17.080;2023-05-18T19:18:47;5.23;;;1.53;;
69280;SDS011;56392;51.082;17.080;2023-05-18T19:24:10;8.80;;;1.98;;
69280;SDS011;56392;51.082;17.080;2023-05-18T19:29:33;6.65;;;1.88;;
69280;SDS011;56392;51.082;17.080;2023-05-18T19:34:59;10.07;;;1.70;;
69280;SDS011;56392;51.082;17.080;2023-05-18T19:40:22;7.73;;;1.50;;
69280;SDS011;56392;51.082;17.080;2023-05-18T19:45:47;7.03;;;1.60;;
69280;SDS011;56392;51.082;17.080;2023-05-18T19:51:12;7.38;;;1.58;;
69280;SDS011;56392;51.082;17.080;2023-05-18T19:56:35;6.50;;;1.67;;
69280;SDS011;56392;51.082;17.080;2023-05-18T20:01:58;5.82;;;1.50;;
69280;SDS011;56392;51.082;17.080;2023-05-18T20:07:25;6.57;;;1.50;;
69280;SDS011;56392;51.082;17.080;2023-05-18T20:12:48;4.93;;;1.40;;
69280;SDS011;56392;51.082;17.080;2023-05-18T20:18:11;5.30;;;1.70;;
69280;SDS011;56392;51.082;17.080;2023-05-18T20:23:35;6.60;;;1.70;;
69280;SDS011;56392;51.082;17.080;2023-05-18T20:28:58;6.67;;;1.50;;
69280;SDS011;56392;51.082;17.080;2023-05-18T20:34:21;6.17;;;1.57;;
69280;SDS011;56392;51.082;17.080;2023-05-18T20:39:46;6.35;;;1.60;;
69280;SDS011;56392;51.082;17.080;2023-05-18T20:45:10;5.30;;;1.50;;
69280;SDS011;56392;51.082;17.080;2023-05-18T20:50:34;6.33;;;1.80;;
69280;SDS011;56392;51.082;17.080;2023-05-18T20:55:58;7.88;;;2.80;;
69280;SDS011;56392;51.082;17.080;2023-05-18T21:01:21;7.05;;;2.10;;
69280;SDS011;56392;51.082;17.080;2023-05-18T21:06:48;6.63;;;1.90;;
69280;SDS011;56392;51.082;17.080;2023-05-18T21:12:13;7.15;;;1.77;;
69280;SDS011;56392;51.082;17.080;2023-05-18T21:17:36;6.40;;;1.80;;
69280;SDS011;56392;51.082;17.080;2023-05-18T21:22:59;5.80;;;1.70;;
69280;SDS011;56392;51.082;17.080;2023-05-18T21:28:24;7.43;;;1.97;;
69280;SDS011;56392;51.082;17.080;2023-05-18T21:33:47;7.65;;;1.95;;
69280;SDS011;56392;51.082;17.080;2023-05-18T21:39:11;5.97;;;1.88;;
69280;SDS011;56392;51.082;17.080;2023-05-18T21:44:35;6.63;;;1.90;;
69280;SDS011;56392;51.082;17.080;2023-05-18T21:49:58;6.55;;;1.90;;
69280;SDS011;56392;51.082;17.080;2023-05-18T21:55:22;7.35;;;2.10;;
69280;SDS011;56392;51.082;17.080;2023-05-18T22:00:47;9.27;;;2.20;;
69280;SDS011;56392;51.082;17.080;2023-05-18T22:06:11;8.35;;;2.40;;
69280;SDS011;56392;51.082;17.080;2023-05-18T22:11:35;10.55;;;3.20;;
69280;SDS011;56392;51.082;17.080;2023-05-18T22:17:00;8.40;;;2.90;;
69280;SDS011;56392;51.082;17.080;2023-05-18T22:22:23;8.27;;;2.67;;
69280;SDS011;56392;51.082;17.080;2023-05-18T22:27:46;7.43;;;2.88;;
69280;SDS011;56392;51.082;17.080;2023-05-18T22:33:10;8.55;;;3.13;;
69280;SDS011;56392;51.082;17.080;2023-05-18T22:38:33;11.17;;;3.20;;
69280;SDS011;56392;51.082;17.080;2023-05-18T22:43:56;8.15;;;2.90;;
69280;SDS011;56392;51.082;17.080;2023-05-18T22:49:21;11.27;;;3.70;;
69280;SDS011;56392;51.082;17.080;2023-05-18T22:54:44;9.67;;;3.17;;
69280;SDS011;56392;51.082;17.080;2023-05-18T23:00:07;9.50;;;3.45;;
69280;SDS011;56392;51.082;17.080;2023-05-18T23:05:33;8.25;;;2.83;;
69280;SDS011;56392;51.082;17.080;2023-05-18T23:10:57;11.50;;;3.60;;
69280;SDS011;56392;51.082;17.080;2023-05-18T23:16:22;10.33;;;3.70;;
69280;SDS011;56392;51.082;17.080;2023-05-18T23:21:48;12.77;;;3.80;;
69280;SDS011;56392;51.082;17.080;2023-05-18T23:27:11;8.13;;;2.90;;
69280;SDS011;56392;51.082;17.080;2023-05-18T23:32:34;9.17;;;3.37;;
69280;SDS011;56392;51.082;17.080;2023-05-18T23:38:00;9.80;;;3.45;;
69280;SDS011;56392;51.082;17.080;2023-05-18T23:43:26;9.90;;;3.10;;
69280;SDS011;56392;51.082;17.080;2023-05-18T23:48:50;10.63;;;3.07;;
69280;SDS011;56392;51.082;17.080;2023-05-18T23:54:15;9.60;;;3.20;;
69280;SDS011;56392;51.082;17.080;2023-05-18T23:59:39;7.93;;;2.60;;
